createdAt,value
2022-08-16T00:01:05.767Z,25.20
2022-08-16T00:03:47.561Z,25.20
2022-08-16T00:06:36.602Z,25.20
2022-08-16T00:09:26.540Z,25.20
2022-08-16T00:12:18.050Z,25.20
2022-08-16T00:14:58.515Z,25.10
2022-08-16T00:17:57.105Z,25.10
2022-08-16T00:20:46.567Z,25.10
2022-08-16T00:23:40.016Z,25.10
2022-08-16T00:26:35.627Z,25.10
2022-08-16T00:29:24.513Z,25.10
2022-08-16T00:32:13.557Z,25.00
2022-08-16T00:34:57.535Z,25.00
2022-08-16T00:37:56.862Z,25.00
2022-08-16T00:40:58.585Z,25.00
2022-08-16T00:43:42.813Z,25.00
2022-08-16T00:46:53.033Z,25.00
2022-08-16T00:49:56.266Z,25.00
2022-08-16T00:52:45.841Z,25.00
2022-08-16T00:55:38.247Z,25.00
2022-08-16T00:58:32.225Z,24.90
2022-08-16T01:01:23.584Z,24.90
2022-08-16T01:04:05.312Z,24.90
2022-08-16T01:07:01.394Z,24.90
2022-08-16T01:09:45.583Z,24.90
2022-08-16T01:12:36.517Z,24.80
2022-08-16T01:15:25.549Z,24.90
2022-08-16T01:18:39.185Z,24.80
2022-08-16T01:21:41.655Z,24.80
2022-08-16T01:24:52.437Z,24.80
2022-08-16T01:27:45.648Z,24.80
2022-08-16T01:30:30.515Z,24.80
2022-08-16T01:33:17.585Z,24.70
2022-08-16T01:35:59.524Z,24.80
2022-08-16T01:38:57.229Z,24.70
2022-08-16T01:41:42.234Z,24.70
2022-08-16T01:44:37.742Z,24.70
2022-08-16T01:47:18.578Z,24.70
2022-08-16T01:50:42.767Z,24.70
2022-08-16T01:53:05.570Z,24.70
2022-08-16T01:56:24.563Z,24.70
2022-08-16T01:59:07.586Z,24.60
2022-08-16T02:02:03.573Z,24.70
2022-08-16T02:05:04.590Z,24.70
2022-08-16T02:07:53.543Z,24.60
2022-08-16T02:10:42.563Z,24.60
2022-08-16T02:13:32.662Z,24.60
2022-08-16T02:16:18.460Z,24.60
2022-08-16T02:19:05.522Z,24.60
2022-08-16T02:22:07.896Z,24.60
2022-08-16T02:25:14.740Z,24.60
2022-08-16T02:28:01.524Z,24.60
2022-08-16T02:30:51.807Z,24.50
2022-08-16T02:33:43.763Z,24.50
2022-08-16T02:36:47.224Z,24.50
2022-08-16T02:39:37.558Z,24.50
2022-08-16T02:42:19.403Z,24.50
2022-08-16T02:45:06.522Z,24.50
2022-08-16T02:48:01.689Z,24.50
2022-08-16T02:51:05.940Z,24.50
2022-08-16T02:53:51.581Z,24.50
2022-08-16T02:56:40.697Z,24.50
2022-08-16T02:59:21.086Z,24.50
2022-08-16T03:02:08.067Z,24.40
2022-08-16T03:04:55.610Z,24.40
2022-08-16T03:07:37.225Z,24.40
2022-08-16T03:10:26.559Z,24.40
2022-08-16T03:13:14.528Z,24.40
2022-08-16T03:15:55.030Z,24.40
2022-08-16T03:18:41.883Z,24.40
2022-08-16T03:21:38.024Z,24.40
2022-08-16T03:24:28.282Z,24.40
2022-08-16T03:27:11.545Z,24.30
2022-08-16T03:29:58.593Z,24.30
2022-08-16T03:32:38.595Z,24.30
2022-08-16T03:35:22.461Z,24.30
2022-08-16T03:38:34.401Z,24.30
2022-08-16T03:41:25.464Z,24.30
2022-08-16T03:44:09.546Z,24.30
2022-08-16T03:46:58.210Z,24.30
2022-08-16T03:49:40.891Z,24.30
2022-08-16T03:52:31.595Z,24.30
2022-08-16T03:55:19.562Z,24.20
2022-08-16T03:58:00.118Z,24.20
2022-08-16T04:00:46.599Z,24.20
2022-08-16T04:03:44.555Z,24.20
2022-08-16T04:06:24.579Z,24.20
2022-08-16T04:09:12.483Z,24.20
2022-08-16T04:12:00.554Z,24.20
2022-08-16T04:14:48.566Z,24.20
2022-08-16T04:17:35.554Z,24.20
2022-08-16T04:20:29.499Z,24.20
2022-08-16T04:23:15.560Z,24.20
2022-08-16T04:26:02.602Z,24.20
2022-08-16T04:29:16.794Z,24.10
2022-08-16T04:32:02.434Z,24.20
2022-08-16T04:34:51.577Z,24.20
2022-08-16T04:37:42.229Z,24.10
2022-08-16T04:40:28.631Z,24.10
2022-08-16T04:43:11.056Z,24.10
2022-08-16T04:46:04.541Z,24.10
2022-08-16T04:49:11.692Z,24.10
2022-08-16T04:51:53.830Z,24.10
2022-08-16T04:54:36.051Z,24.10
2022-08-16T04:57:29.995Z,24.10
2022-08-16T05:00:30.889Z,24.10
2022-08-16T05:03:22.632Z,24.10
2022-08-16T05:06:05.255Z,24.10
2022-08-16T05:08:56.564Z,24.10
2022-08-16T05:11:43.627Z,24.10
2022-08-16T05:14:45.778Z,24.10
2022-08-16T05:17:29.466Z,24.10
2022-08-16T05:20:35.582Z,24.10
2022-08-16T05:23:26.550Z,24.10
2022-08-16T05:26:20.198Z,24.10
2022-08-16T05:29:11.016Z,24.10
2022-08-16T05:32:32.870Z,24.10
2022-08-16T05:35:18.551Z,24.20
2022-08-16T05:38:32.516Z,24.20
2022-08-16T05:41:27.571Z,24.20
2022-08-16T05:44:24.076Z,24.20
2022-08-16T05:47:11.562Z,24.20
2022-08-16T05:49:54.638Z,24.20
2022-08-16T05:52:45.374Z,24.20
2022-08-16T05:55:26.623Z,24.20
2022-08-16T05:58:31.987Z,24.30
2022-08-16T06:01:21.686Z,24.30
2022-08-16T06:04:02.093Z,24.20
2022-08-16T06:06:57.477Z,24.30
2022-08-16T06:09:43.364Z,24.30
2022-08-16T06:12:31.022Z,24.30
2022-08-16T06:15:35.141Z,24.40
2022-08-16T06:18:21.565Z,24.40
2022-08-16T06:21:22.943Z,24.30
2022-08-16T06:24:54.746Z,24.40
2022-08-16T06:27:15.651Z,24.50
2022-08-16T06:29:56.578Z,24.40
2022-08-16T06:32:48.601Z,24.50
2022-08-16T06:35:40.275Z,24.50
2022-08-16T06:38:33.280Z,24.50
2022-08-16T06:41:39.741Z,24.60
2022-08-16T06:44:28.076Z,24.60
2022-08-16T06:47:19.606Z,24.70
2022-08-16T06:50:07.560Z,24.70
2022-08-16T06:53:00.559Z,24.70
2022-08-16T06:56:14.919Z,24.70
2022-08-16T06:59:29.582Z,24.70
2022-08-16T07:02:33.322Z,24.80
2022-08-16T07:05:27.248Z,24.80
2022-08-16T07:08:36.566Z,24.90
2022-08-16T07:11:45.978Z,24.90
2022-08-16T07:14:39.574Z,24.90
2022-08-16T07:17:30.586Z,25.10
2022-08-16T07:20:43.583Z,25.20
2022-08-16T07:23:37.253Z,25.40
2022-08-16T07:26:34.579Z,25.80
2022-08-16T07:29:15.095Z,26.30
2022-08-16T07:32:01.581Z,26.70
2022-08-16T07:34:49.080Z,27.10
2022-08-16T07:37:28.593Z,27.40
2022-08-16T07:40:36.970Z,27.70
2022-08-16T07:43:28.942Z,28.00
2022-08-16T07:46:37.560Z,28.30
2022-08-16T07:49:22.590Z,28.50
2022-08-16T07:52:18.725Z,28.70
2022-08-16T07:55:07.588Z,28.80
2022-08-16T07:58:00.579Z,28.90
2022-08-16T08:00:43.624Z,29.00
2022-08-16T08:03:36.151Z,29.10
2022-08-16T08:06:19.700Z,29.10
2022-08-16T08:09:09.607Z,29.20
2022-08-16T08:12:01.510Z,29.30
2022-08-16T08:14:55.597Z,29.40
2022-08-16T08:17:45.608Z,29.40
2022-08-16T08:20:45.580Z,29.50
2022-08-16T08:23:48.618Z,29.60
2022-08-16T08:26:30.096Z,29.70
2022-08-16T08:29:23.206Z,29.70
2022-08-16T08:33:00.060Z,29.80
2022-08-16T08:35:27.084Z,29.90
2022-08-16T08:38:15.870Z,30.10
2022-08-16T08:41:18.661Z,30.10
2022-08-16T08:44:28.970Z,30.20
2022-08-16T08:47:19.581Z,30.20
2022-08-16T08:50:06.766Z,30.30
2022-08-16T08:52:54.590Z,30.30
2022-08-16T08:55:42.608Z,30.40
2022-08-16T08:58:23.819Z,30.40
2022-08-16T09:01:42.679Z,30.40
2022-08-16T09:04:22.796Z,30.50
2022-08-16T09:07:11.584Z,30.50
2022-08-16T09:10:06.869Z,30.50
2022-08-16T09:13:05.609Z,30.50
2022-08-16T09:15:55.472Z,30.60
2022-08-16T09:18:43.616Z,30.60
2022-08-16T09:21:31.363Z,30.50
2022-08-16T09:24:12.629Z,30.50
2022-08-16T09:27:13.315Z,30.50
2022-08-16T09:30:02.678Z,30.50
2022-08-16T09:33:00.102Z,30.60
2022-08-16T09:35:47.650Z,30.50
2022-08-16T09:38:35.413Z,30.60
2022-08-16T09:41:23.668Z,30.60
2022-08-16T09:45:11.604Z,30.50
2022-08-16T09:47:10.724Z,30.50
2022-08-16T09:49:57.631Z,30.50
2022-08-16T09:52:44.117Z,30.50
2022-08-16T09:55:44.723Z,30.40
2022-08-16T09:58:39.026Z,30.40
2022-08-16T10:01:29.624Z,30.40
2022-08-16T10:04:29.288Z,30.40
2022-08-16T10:07:16.832Z,30.40
2022-08-16T10:09:57.687Z,30.30
2022-08-16T10:13:03.701Z,30.30
2022-08-16T10:15:55.575Z,30.20
2022-08-16T10:19:01.756Z,30.30
2022-08-16T10:21:56.754Z,30.40
2022-08-16T10:24:56.010Z,30.40
2022-08-16T10:27:46.228Z,30.30
2022-08-16T10:30:39.135Z,30.20
2022-08-16T10:33:20.690Z,30.10
2022-08-16T10:36:37.851Z,30.10
2022-08-16T10:39:14.686Z,29.90
2022-08-16T10:42:01.630Z,29.80
2022-08-16T10:44:42.453Z,29.80
2022-08-16T10:47:33.193Z,29.80
2022-08-16T10:50:19.641Z,29.80
2022-08-16T10:53:12.664Z,29.80
2022-08-16T10:55:57.347Z,29.60
2022-08-16T10:58:37.634Z,29.50
2022-08-16T11:01:43.746Z,29.40
2022-08-16T11:05:05.478Z,29.30
2022-08-16T11:07:53.288Z,29.40
2022-08-16T11:11:05.344Z,29.40
2022-08-16T11:14:05.905Z,29.40
2022-08-16T11:17:11.101Z,29.30
2022-08-16T11:23:18.641Z,28.90
2022-08-16T11:26:22.711Z,28.70
2022-08-16T11:29:19.827Z,28.60
2022-08-16T11:32:07.618Z,28.50
2022-08-16T11:35:13.285Z,28.50
2022-08-16T11:38:23.416Z,28.50
2022-08-16T11:41:10.638Z,28.60
2022-08-16T11:43:51.297Z,28.60
2022-08-16T11:46:44.547Z,28.70
2022-08-16T11:49:26.207Z,28.70
2022-08-16T11:52:12.662Z,28.70
2022-08-16T11:55:03.693Z,28.70
2022-08-16T11:57:44.714Z,28.70
2022-08-16T12:00:51.709Z,28.80
2022-08-16T12:03:38.691Z,28.80
2022-08-16T12:06:30.599Z,28.80
2022-08-16T12:09:11.658Z,28.80
2022-08-16T12:12:03.004Z,28.80
2022-08-16T12:14:42.654Z,28.80
2022-08-16T12:17:26.705Z,28.80
2022-08-16T12:20:22.656Z,28.60
2022-08-16T12:23:04.746Z,28.50
2022-08-16T12:25:51.671Z,28.40
2022-08-16T12:28:53.986Z,28.40
2022-08-16T12:32:01.301Z,28.40
2022-08-16T12:34:52.791Z,28.40
2022-08-16T12:37:39.679Z,28.30
2022-08-16T12:40:31.994Z,28.20
2022-08-16T12:43:21.658Z,28.20
2022-08-16T12:46:10.739Z,28.10
2022-08-16T12:49:19.706Z,28.00
2022-08-16T12:52:09.648Z,28.00
2022-08-16T12:55:17.674Z,27.90
2022-08-16T12:58:00.387Z,27.80
2022-08-16T13:00:48.711Z,27.80
2022-08-16T13:03:40.133Z,27.80
2022-08-16T13:06:21.699Z,27.70
2022-08-16T13:09:28.861Z,27.70
2022-08-16T13:12:25.666Z,27.70
2022-08-16T13:15:17.683Z,27.60
2022-08-16T13:18:24.281Z,27.60
2022-08-16T13:21:23.690Z,27.60
2022-08-16T13:24:10.685Z,27.60
2022-08-16T13:26:53.142Z,27.50
2022-08-16T13:29:40.111Z,27.50
2022-08-16T13:32:39.962Z,27.50
2022-08-16T13:35:34.449Z,27.50
2022-08-16T13:38:24.760Z,27.50
2022-08-16T13:41:16.705Z,27.50
2022-08-16T13:43:57.897Z,27.50
2022-08-16T13:46:48.657Z,27.50
2022-08-16T13:49:30.738Z,27.50
2022-08-16T13:52:22.998Z,27.40
2022-08-16T13:55:17.660Z,27.40
2022-08-16T13:58:37.582Z,27.40
2022-08-16T14:01:04.743Z,27.40
2022-08-16T14:03:56.673Z,27.30
2022-08-16T14:06:37.734Z,27.30
2022-08-16T14:09:24.677Z,27.30
2022-08-16T14:12:17.669Z,27.30
2022-08-16T14:15:05.690Z,27.20
2022-08-16T14:18:15.002Z,27.20
2022-08-16T14:20:52.695Z,27.10
2022-08-16T14:23:39.697Z,27.10
2022-08-16T14:26:21.446Z,27.10
2022-08-16T14:29:08.679Z,27.10
2022-08-16T14:31:56.667Z,27.10
2022-08-16T14:34:43.704Z,27.10
2022-08-16T14:37:32.014Z,27.10
2022-08-16T14:40:15.781Z,27.00
2022-08-16T14:43:07.144Z,27.00
2022-08-16T14:45:55.019Z,27.00
2022-08-16T14:48:41.695Z,27.00
2022-08-16T14:51:22.750Z,27.00
2022-08-16T14:54:15.085Z,27.00
2022-08-16T14:56:55.745Z,26.90
2022-08-16T14:59:45.306Z,26.90
2022-08-16T15:02:34.361Z,26.90
2022-08-16T15:05:35.012Z,26.90
2022-08-16T15:08:20.390Z,26.90
2022-08-16T15:11:07.970Z,26.80
2022-08-16T15:13:54.692Z,26.80
2022-08-16T15:16:43.231Z,26.80
2022-08-16T15:19:25.824Z,26.80
2022-08-16T15:22:21.683Z,26.80
2022-08-16T15:25:07.026Z,26.80
2022-08-16T15:27:55.762Z,26.80
2022-08-16T15:30:59.773Z,26.80
2022-08-16T15:33:56.563Z,26.80
2022-08-16T15:36:44.693Z,26.80
2022-08-16T15:39:38.815Z,26.70
2022-08-16T15:42:28.018Z,26.70
2022-08-16T15:45:11.496Z,26.70
2022-08-16T15:48:03.683Z,26.60
2022-08-16T15:50:51.805Z,26.60
2022-08-16T15:53:37.680Z,26.60
2022-08-16T15:56:23.797Z,26.60
2022-08-16T15:59:15.742Z,26.60
2022-08-16T16:01:58.279Z,26.60
2022-08-16T16:04:44.711Z,26.60
2022-08-16T16:07:40.908Z,26.50
2022-08-16T16:10:43.509Z,26.50
2022-08-16T16:13:27.708Z,26.50
2022-08-16T16:16:16.696Z,26.50
2022-08-16T16:19:06.720Z,26.50
2022-08-16T16:22:01.689Z,26.40
2022-08-16T16:24:50.715Z,26.40
2022-08-16T16:27:30.770Z,26.40
2022-08-16T16:30:38.039Z,26.40
2022-08-16T16:33:24.128Z,26.40
2022-08-16T16:36:11.687Z,26.40
2022-08-16T16:38:53.855Z,26.40
2022-08-16T16:41:42.027Z,26.40
2022-08-16T16:44:33.497Z,26.40
2022-08-16T16:47:22.714Z,26.40
2022-08-16T16:50:03.786Z,26.40
2022-08-16T16:52:51.710Z,26.40
2022-08-16T16:55:38.988Z,26.40
2022-08-16T16:58:53.409Z,26.40
2022-08-16T17:01:59.831Z,26.30
2022-08-16T17:04:50.263Z,26.30
2022-08-16T17:07:37.701Z,26.30
2022-08-16T17:10:46.009Z,26.30
2022-08-16T17:13:25.706Z,26.30
2022-08-16T17:16:18.405Z,26.20
2022-08-16T17:19:17.426Z,26.20
2022-08-16T17:22:15.840Z,26.20
2022-08-16T17:25:02.757Z,26.20
2022-08-16T17:27:51.013Z,26.20
2022-08-16T17:30:45.170Z,26.20
2022-08-16T17:33:36.768Z,26.20
2022-08-16T17:36:35.839Z,26.20
2022-08-16T17:39:16.766Z,26.10
2022-08-16T17:42:19.721Z,26.10
2022-08-16T17:45:08.719Z,26.10
2022-08-16T17:47:56.699Z,26.10
2022-08-16T17:50:43.719Z,26.10
2022-08-16T17:53:30.722Z,26.10
2022-08-16T17:56:10.788Z,26.10
2022-08-16T17:58:58.714Z,26.10
2022-08-16T18:01:38.897Z,26.10
2022-08-16T18:04:49.043Z,26.10
2022-08-16T18:07:26.152Z,26.10
2022-08-16T18:10:13.749Z,26.00
2022-08-16T18:13:10.770Z,26.10
2022-08-16T18:15:57.744Z,26.00
2022-08-16T18:18:37.778Z,26.00
2022-08-16T18:21:43.754Z,26.10
2022-08-16T18:24:24.725Z,26.00
2022-08-16T18:27:25.289Z,26.00
2022-08-16T18:30:06.787Z,26.00
2022-08-16T18:32:55.704Z,26.00
2022-08-16T18:35:35.808Z,25.90
2022-08-16T18:38:22.722Z,26.00
2022-08-16T18:41:09.742Z,26.00
2022-08-16T18:44:26.391Z,26.00
2022-08-16T18:46:56.853Z,26.00
2022-08-16T18:49:43.751Z,26.00
2022-08-16T18:52:25.944Z,26.00
2022-08-16T18:55:14.003Z,26.00
2022-08-16T18:57:54.802Z,26.00
2022-08-16T19:00:50.541Z,26.00
2022-08-16T19:03:38.799Z,26.00
2022-08-16T19:06:25.742Z,26.00
2022-08-16T19:09:05.800Z,25.90
2022-08-16T19:11:52.751Z,26.00
2022-08-16T19:14:32.802Z,25.90
2022-08-16T19:17:19.745Z,25.90
2022-08-16T19:19:59.821Z,25.90
2022-08-16T19:23:05.935Z,26.00
2022-08-16T19:25:52.898Z,26.00
2022-08-16T19:28:51.365Z,26.00
2022-08-16T19:31:39.782Z,25.90
2022-08-16T19:34:26.749Z,25.90
2022-08-16T19:37:13.743Z,25.90
2022-08-16T19:39:54.596Z,25.90
2022-08-16T19:42:41.992Z,25.90
2022-08-16T19:45:36.868Z,25.90
2022-08-16T19:48:23.745Z,26.00
2022-08-16T19:50:56.791Z,25.90
2022-08-16T19:53:43.755Z,25.90
2022-08-16T19:56:25.937Z,25.90
2022-08-16T19:59:21.816Z,25.90
2022-08-16T20:02:02.085Z,26.00
2022-08-16T20:04:48.754Z,25.90
2022-08-16T20:07:28.805Z,25.90
2022-08-16T20:10:16.759Z,25.90
2022-08-16T20:13:02.447Z,25.90
2022-08-16T20:15:50.761Z,25.90
2022-08-16T20:18:32.535Z,25.90
2022-08-16T20:21:20.737Z,25.90
2022-08-16T20:24:32.600Z,26.00
2022-08-16T20:27:09.731Z,26.00
2022-08-16T20:29:58.742Z,25.90
2022-08-16T20:32:45.819Z,26.00
2022-08-16T20:35:30.745Z,26.00
2022-08-16T20:38:19.385Z,26.00
2022-08-16T20:40:58.751Z,26.00
2022-08-16T20:43:39.263Z,26.00
2022-08-16T20:46:26.766Z,26.00
2022-08-16T20:49:09.239Z,26.00
2022-08-16T20:51:59.577Z,26.00
2022-08-16T20:54:46.883Z,26.00
2022-08-16T20:57:26.761Z,26.00
2022-08-16T21:00:10.162Z,26.00
2022-08-16T21:02:56.750Z,26.00
2022-08-16T21:05:37.508Z,26.00
2022-08-16T21:08:50.956Z,26.00
2022-08-16T21:11:28.332Z,26.00
2022-08-16T21:14:17.763Z,26.00
2022-08-16T21:16:58.263Z,26.00
2022-08-16T21:19:45.761Z,26.00
2022-08-16T21:22:39.746Z,26.00
2022-08-16T21:25:26.762Z,26.00
2022-08-16T21:28:39.995Z,25.90
2022-08-16T21:31:15.771Z,26.00
2022-08-16T21:33:56.417Z,26.00
2022-08-16T21:36:42.784Z,25.90
2022-08-16T21:39:22.829Z,25.90
2022-08-16T21:42:15.786Z,25.90
2022-08-16T21:44:55.874Z,25.90
2022-08-16T21:47:42.779Z,26.00
2022-08-16T21:50:22.925Z,25.90
2022-08-16T21:53:23.769Z,25.90
2022-08-16T21:56:05.854Z,25.90
2022-08-16T21:58:53.942Z,25.90
2022-08-16T22:01:33.880Z,25.90
2022-08-16T22:04:37.175Z,25.90
2022-08-16T22:07:19.902Z,25.80
2022-08-16T22:11:06.899Z,25.90
2022-08-16T22:13:06.831Z,25.90
2022-08-16T22:15:54.774Z,25.80
2022-08-16T22:18:34.846Z,25.80
2022-08-16T22:21:21.779Z,25.80
2022-08-16T22:24:02.849Z,25.80
2022-08-16T22:26:49.764Z,25.80
2022-08-16T22:29:30.863Z,25.80
2022-08-16T22:32:17.781Z,25.80
2022-08-16T22:35:00.905Z,25.80
2022-08-16T22:38:54.812Z,25.80
2022-08-16T22:40:59.091Z,25.80
2022-08-16T22:43:45.787Z,25.80
2022-08-16T22:46:40.770Z,25.80
2022-08-16T22:49:27.770Z,25.80
2022-08-16T22:52:15.845Z,25.80
2022-08-16T22:55:26.106Z,25.80
2022-08-16T22:58:05.826Z,25.70
2022-08-16T23:00:52.803Z,25.70
2022-08-16T23:03:39.802Z,25.70
2022-08-16T23:06:26.843Z,25.70
2022-08-16T23:09:06.871Z,25.70
2022-08-16T23:11:53.778Z,25.70
2022-08-16T23:14:33.928Z,25.70
2022-08-16T23:17:22.794Z,25.70
2022-08-16T23:20:02.940Z,25.70
2022-08-16T23:23:19.819Z,25.70
2022-08-16T23:25:55.890Z,25.60
2022-08-16T23:28:43.781Z,25.60
2022-08-16T23:31:30.776Z,25.60
2022-08-16T23:34:12.524Z,25.60
2022-08-16T23:36:58.829Z,25.60
2022-08-16T23:39:45.896Z,25.60
2022-08-16T23:42:52.157Z,25.60
2022-08-16T23:45:31.190Z,25.60
2022-08-16T23:48:18.790Z,25.60
2022-08-16T23:51:00.931Z,25.60
2022-08-16T23:53:50.800Z,25.50
2022-08-16T23:56:38.975Z,25.50
2022-08-16T23:59:27.801Z,25.50
